This is the latest recevied weather packets stored in our database for station/object CQ0XPG-11. If no packets are shown the sender has not sent any weather packets the latest 10 day(s).
| Time | Temp. | Humidity | Pressure | Rain* | Wind** | Luminosity | Snow |
|---|---|---|---|---|---|---|---|
| 1777900444 | 16.11° C | 65% | 1007 hPa | 0 mm | - | - | - |
| 1777900152 | 16.11° C | 64% | 1006.9 hPa | 0 mm | - | - | - |
| 1777899822 | 16.11° C | 70% | 1007 hPa | 0 mm | - | - | - |
| 1777898917 | 16.11° C | 70% | 1007.2 hPa | 0 mm | - | - | - |
| 1777898603 | 16.67° C | 68% | 1007.1 hPa | 0 mm | - | - | - |
| 1777898339 | 16.67° C | 69% | 1007.1 hPa | 0 mm | - | - | - |
| 1777898003 | 16.11° C | 65% | 1007.2 hPa | 0 mm | - | - | - |
| 1777897743 | 16.67° C | 66% | 1007.1 hPa | 0 mm | - | - | - |
| 1777897397 | 16.67° C | 60% | 1007.2 hPa | 0 mm | - | - | - |
| 1777896790 | 15.56° C | 73% | 1007.3 hPa | 0 mm | - | - | - |
| 1777896513 | 15° C | 76% | 1007.4 hPa | 0 mm | - | - | - |
| 1777896202 | 15° C | 73% | 1007.4 hPa | 0 mm | - | - | - |
| 1777895596 | 15° C | 86% | 1007.4 hPa | 0 mm | - | - | - |
| 1777895288 | 15.56° C | 77% | 1007.4 hPa | 0 mm | - | - | - |
| 1777894978 | 16.67° C | 64% | 1007.4 hPa | 0 mm | - | - | - |
| 1777894701 | 16.67° C | 65% | 1007.4 hPa | 0 mm | - | - | - |
| 1777894370 | 16.67° C | 62% | 1007.4 hPa | 0 mm | - | - | - |
| 1777893783 | 15.56° C | 86% | 1007.3 hPa | 0 mm | - | - | - |
| 1777893159 | 15° C | 83% | 1007.4 hPa | 0 mm | - | - | - |
| 1777892875 | 15° C | 87% | 1007.4 hPa | 0 mm | - | - | - |
| 1777892251 | 14.44° C | 89% | 1007.5 hPa | 0 mm | - | - | - |
| 1777891964 | 15° C | 92% | 1007.4 hPa | 0 mm | - | - | - |
| 1777891647 | 15° C | 97% | 1007.4 hPa | 0 mm | - | - | - |
| 1777891382 | 15° C | 97% | 1007.5 hPa | 0 mm | - | - | - |
| 1777891048 | 15° C | 96% | 1007.6 hPa | 0 mm | - | - | - |
* Rain since midnight (hover to see other rain measurements)
** Current wind speed in m/s (hover to see current wind gust speed)